sensor_id;sensor_type;location;lat;lon;timestamp;temperature;humidity
11005;DHT22;5555;59.622;16.556;2023-12-20T00:00:58;-0.70;99.90
11005;DHT22;5555;59.622;16.556;2023-12-20T00:03:24;-0.80;99.90
11005;DHT22;5555;59.622;16.556;2023-12-20T00:05:50;-0.90;99.90
11005;DHT22;5555;59.622;16.556;2023-12-20T00:08:16;-1.00;99.90
11005;DHT22;5555;59.622;16.556;2023-12-20T00:10:42;-1.20;99.90
11005;DHT22;5555;59.622;16.556;2023-12-20T00:13:08;-1.30;99.90
11005;DHT22;5555;59.622;16.556;2023-12-20T00:15:34;-1.50;99.90
11005;DHT22;5555;59.622;16.556;2023-12-20T00:18:00;-1.50;99.90
11005;DHT22;5555;59.622;16.556;2023-12-20T00:20:26;-1.60;99.90
11005;DHT22;5555;59.622;16.556;2023-12-20T00:22:53;-1.60;99.90
11005;DHT22;5555;59.622;16.556;2023-12-20T00:25:19;-1.70;99.90
11005;DHT22;5555;59.622;16.556;2023-12-20T00:27:44;-1.70;99.90
11005;DHT22;5555;59.622;16.556;2023-12-20T00:30:11;-1.70;99.90
11005;DHT22;5555;59.622;16.556;2023-12-20T00:32:36;-1.80;99.90
11005;DHT22;5555;59.622;16.556;2023-12-20T00:35:02;-1.90;99.90
11005;DHT22;5555;59.622;16.556;2023-12-20T00:37:28;-2.00;99.90
11005;DHT22;5555;59.622;16.556;2023-12-20T00:39:53;-2.00;99.90
11005;DHT22;5555;59.622;16.556;2023-12-20T00:42:19;-1.90;99.90
11005;DHT22;5555;59.622;16.556;2023-12-20T00:44:44;-2.00;99.90
11005;DHT22;5555;59.622;16.556;2023-12-20T00:47:10;-2.00;99.90
11005;DHT22;5555;59.622;16.556;2023-12-20T00:49:36;-2.20;99.90
11005;DHT22;5555;59.622;16.556;2023-12-20T00:52:01;-2.30;99.90
11005;DHT22;5555;59.622;16.556;2023-12-20T00:54:27;-2.40;99.90
11005;DHT22;5555;59.622;16.556;2023-12-20T00:56:52;-2.50;99.90
11005;DHT22;5555;59.622;16.556;2023-12-20T00:59:19;-2.40;99.90
11005;DHT22;5555;59.622;16.556;2023-12-20T01:01:44;-2.40;99.90
11005;DHT22;5555;59.622;16.556;2023-12-20T01:04:10;-2.40;99.90
11005;DHT22;5555;59.622;16.556;2023-12-20T01:06:36;-2.20;99.90
11005;DHT22;5555;59.622;16.556;2023-12-20T01:09:01;-2.20;99.90
11005;DHT22;5555;59.622;16.556;2023-12-20T01:11:28;-2.20;99.90
11005;DHT22;5555;59.622;16.556;2023-12-20T01:13:53;-2.20;99.90
11005;DHT22;5555;59.622;16.556;2023-12-20T01:16:19;-2.30;99.90
11005;DHT22;5555;59.622;16.556;2023-12-20T01:18:44;-2.20;99.90
11005;DHT22;5555;59.622;16.556;2023-12-20T01:21:10;-2.30;99.90
11005;DHT22;5555;59.622;16.556;2023-12-20T01:23:36;-2.40;99.90
11005;DHT22;5555;59.622;16.556;2023-12-20T01:26:01;-2.40;99.90
11005;DHT22;5555;59.622;16.556;2023-12-20T01:28:28;-2.40;99.90
11005;DHT22;5555;59.622;16.556;2023-12-20T01:30:53;-2.40;99.90
11005;DHT22;5555;59.622;16.556;2023-12-20T01:33:19;-2.40;99.90
11005;DHT22;5555;59.622;16.556;2023-12-20T01:35:45;-2.40;99.90
11005;DHT22;5555;59.622;16.556;2023-12-20T01:38:10;-2.40;99.90
11005;DHT22;5555;59.622;16.556;2023-12-20T01:40:36;-2.30;99.90
11005;DHT22;5555;59.622;16.556;2023-12-20T01:43:08;-2.20;99.90
11005;DHT22;5555;59.622;16.556;2023-12-20T01:45:35;-2.20;99.90
11005;DHT22;5555;59.622;16.556;2023-12-20T01:48:01;-2.10;99.90
11005;DHT22;5555;59.622;16.556;2023-12-20T01:50:28;-2.00;99.90
11005;DHT22;5555;59.622;16.556;2023-12-20T01:52:55;-1.90;99.90
11005;DHT22;5555;59.622;16.556;2023-12-20T01:55:23;-1.80;99.90
11005;DHT22;5555;59.622;16.556;2023-12-20T01:57:50;-1.70;99.90
11005;DHT22;5555;59.622;16.556;2023-12-20T02:00:16;-1.50;99.90
11005;DHT22;5555;59.622;16.556;2023-12-20T02:02:43;-1.50;99.90
11005;DHT22;5555;59.622;16.556;2023-12-20T02:05:10;-1.50;99.90
11005;DHT22;5555;59.622;16.556;2023-12-20T02:07:36;-1.50;99.90
11005;DHT22;5555;59.622;16.556;2023-12-20T02:10:02;-1.50;99.90
11005;DHT22;5555;59.622;16.556;2023-12-20T02:12:29;-1.40;99.90
11005;DHT22;5555;59.622;16.556;2023-12-20T02:14:55;-1.50;99.90
11005;DHT22;5555;59.622;16.556;2023-12-20T02:17:21;-1.50;99.90
11005;DHT22;5555;59.622;16.556;2023-12-20T02:19:47;-1.40;99.90
11005;DHT22;5555;59.622;16.556;2023-12-20T02:22:13;-1.40;99.90
11005;DHT22;5555;59.622;16.556;2023-12-20T02:24:39;-1.40;99.90
11005;DHT22;5555;59.622;16.556;2023-12-20T02:27:08;-1.30;99.90
11005;DHT22;5555;59.622;16.556;2023-12-20T02:29:34;-1.30;99.90
11005;DHT22;5555;59.622;16.556;2023-12-20T02:32:00;-1.20;99.90
11005;DHT22;5555;59.622;16.556;2023-12-20T02:34:26;-1.20;99.90
11005;DHT22;5555;59.622;16.556;2023-12-20T02:36:52;-1.10;99.90
11005;DHT22;5555;59.622;16.556;2023-12-20T02:39:18;-1.00;99.90
11005;DHT22;5555;59.622;16.556;2023-12-20T02:41:44;-1.00;99.90
11005;DHT22;5555;59.622;16.556;2023-12-20T02:44:10;-0.90;99.90
11005;DHT22;5555;59.622;16.556;2023-12-20T02:46:36;-0.80;99.90
11005;DHT22;5555;59.622;16.556;2023-12-20T02:49:01;-0.70;99.90
11005;DHT22;5555;59.622;16.556;2023-12-20T02:51:27;-0.60;99.90
11005;DHT22;5555;59.622;16.556;2023-12-20T02:53:52;-0.50;99.90
11005;DHT22;5555;59.622;16.556;2023-12-20T02:56:19;-0.40;99.90
11005;DHT22;5555;59.622;16.556;2023-12-20T02:58:45;-0.40;99.90
11005;DHT22;5555;59.622;16.556;2023-12-20T03:01:10;-0.30;99.90
11005;DHT22;5555;59.622;16.556;2023-12-20T03:03:36;-0.30;99.90
11005;DHT22;5555;59.622;16.556;2023-12-20T03:06:02;-0.30;99.90
11005;DHT22;5555;59.622;16.556;2023-12-20T03:08:27;-0.20;99.90
11005;DHT22;5555;59.622;16.556;2023-12-20T03:10:53;-0.20;99.90
11005;DHT22;5555;59.622;16.556;2023-12-20T03:13:19;-0.20;99.90
11005;DHT22;5555;59.622;16.556;2023-12-20T03:15:45;-0.10;99.90
11005;DHT22;5555;59.622;16.556;2023-12-20T03:18:11;-0.10;99.90
11005;DHT22;5555;59.622;16.556;2023-12-20T03:20:37;-0.10;99.90
11005;DHT22;5555;59.622;16.556;2023-12-20T03:23:03;-0.10;99.90
11005;DHT22;5555;59.622;16.556;2023-12-20T03:25:28;0.00;99.90
11005;DHT22;5555;59.622;16.556;2023-12-20T03:27:54;0.00;99.90
11005;DHT22;5555;59.622;16.556;2023-12-20T03:30:20;0.00;99.90
11005;DHT22;5555;59.622;16.556;2023-12-20T03:32:46;0.00;99.90
11005;DHT22;5555;59.622;16.556;2023-12-20T03:35:12;0.00;99.90
11005;DHT22;5555;59.622;16.556;2023-12-20T03:37:37;0.00;99.90
11005;DHT22;5555;59.622;16.556;2023-12-20T03:40:03;0.10;99.90
11005;DHT22;5555;59.622;16.556;2023-12-20T03:42:29;0.10;99.90
11005;DHT22;5555;59.622;16.556;2023-12-20T03:44:55;0.10;99.90
11005;DHT22;5555;59.622;16.556;2023-12-20T03:47:20;0.10;99.90
11005;DHT22;5555;59.622;16.556;2023-12-20T03:49:46;0.10;99.90
11005;DHT22;5555;59.622;16.556;2023-12-20T03:52:12;0.10;99.90
11005;DHT22;5555;59.622;16.556;2023-12-20T03:54:37;0.20;99.90
11005;DHT22;5555;59.622;16.556;2023-12-20T03:57:03;0.20;99.90
11005;DHT22;5555;59.622;16.556;2023-12-20T03:59:30;0.20;99.90
11005;DHT22;5555;59.622;16.556;2023-12-20T04:01:59;0.20;99.90
11005;DHT22;5555;59.622;16.556;2023-12-20T04:04:25;0.30;99.90
11005;DHT22;5555;59.622;16.556;2023-12-20T04:06:51;0.30;99.90
11005;DHT22;5555;59.622;16.556;2023-12-20T04:09:16;0.30;99.90
11005;DHT22;5555;59.622;16.556;2023-12-20T04:11:42;0.40;99.90
11005;DHT22;5555;59.622;16.556;2023-12-20T04:14:07;0.40;99.90
11005;DHT22;5555;59.622;16.556;2023-12-20T04:16:33;0.50;99.90
11005;DHT22;5555;59.622;16.556;2023-12-20T04:18:58;0.50;99.90
11005;DHT22;5555;59.622;16.556;2023-12-20T04:21:24;0.50;99.90
11005;DHT22;5555;59.622;16.556;2023-12-20T04:23:50;0.50;99.90
11005;DHT22;5555;59.622;16.556;2023-12-20T04:26:15;0.50;99.90
11005;DHT22;5555;59.622;16.556;2023-12-20T04:28:41;0.60;99.90
11005;DHT22;5555;59.622;16.556;2023-12-20T04:31:07;0.60;99.90
11005;DHT22;5555;59.622;16.556;2023-12-20T04:33:33;0.60;99.90
11005;DHT22;5555;59.622;16.556;2023-12-20T04:35:58;0.60;99.90
11005;DHT22;5555;59.622;16.556;2023-12-20T04:38:25;0.60;99.90
11005;DHT22;5555;59.622;16.556;2023-12-20T04:40:51;0.70;99.90
11005;DHT22;5555;59.622;16.556;2023-12-20T04:43:17;0.70;99.90
11005;DHT22;5555;59.622;16.556;2023-12-20T04:45:42;0.70;99.90
11005;DHT22;5555;59.622;16.556;2023-12-20T04:48:08;0.70;99.90
11005;DHT22;5555;59.622;16.556;2023-12-20T04:50:33;0.80;99.90
11005;DHT22;5555;59.622;16.556;2023-12-20T04:52:59;0.80;99.90
11005;DHT22;5555;59.622;16.556;2023-12-20T04:55:25;0.80;99.90
11005;DHT22;5555;59.622;16.556;2023-12-20T04:57:50;0.80;99.90
11005;DHT22;5555;59.622;16.556;2023-12-20T05:00:16;0.80;99.90
11005;DHT22;5555;59.622;16.556;2023-12-20T05:02:41;0.80;99.90
11005;DHT22;5555;59.622;16.556;2023-12-20T05:05:07;0.80;99.90
11005;DHT22;5555;59.622;16.556;2023-12-20T05:07:33;0.70;99.90
11005;DHT22;5555;59.622;16.556;2023-12-20T05:09:59;0.70;99.90
11005;DHT22;5555;59.622;16.556;2023-12-20T05:12:25;0.70;99.90
11005;DHT22;5555;59.622;16.556;2023-12-20T05:14:51;0.70;99.90
11005;DHT22;5555;59.622;16.556;2023-12-20T05:17:17;0.70;99.90
11005;DHT22;5555;59.622;16.556;2023-12-20T05:19:43;0.70;99.90
11005;DHT22;5555;59.622;16.556;2023-12-20T05:22:09;0.70;99.90
11005;DHT22;5555;59.622;16.556;2023-12-20T05:24:35;0.70;99.90
11005;DHT22;5555;59.622;16.556;2023-12-20T05:27:00;0.60;99.90
11005;DHT22;5555;59.622;16.556;2023-12-20T05:29:26;0.60;99.90
11005;DHT22;5555;59.622;16.556;2023-12-20T05:31:51;0.60;99.90
11005;DHT22;5555;59.622;16.556;2023-12-20T05:34:17;0.60;99.90
11005;DHT22;5555;59.622;16.556;2023-12-20T05:36:43;0.60;99.90
11005;DHT22;5555;59.622;16.556;2023-12-20T05:39:08;0.60;99.90
11005;DHT22;5555;59.622;16.556;2023-12-20T05:41:34;0.60;99.90
11005;DHT22;5555;59.622;16.556;2023-12-20T05:43:59;0.60;99.90
11005;DHT22;5555;59.622;16.556;2023-12-20T05:46:26;0.70;99.90
11005;DHT22;5555;59.622;16.556;2023-12-20T05:48:51;0.70;99.90
11005;DHT22;5555;59.622;16.556;2023-12-20T05:51:17;0.80;99.90
11005;DHT22;5555;59.622;16.556;2023-12-20T05:53:44;0.80;99.90
11005;DHT22;5555;59.622;16.556;2023-12-20T05:56:10;0.80;99.90
11005;DHT22;5555;59.622;16.556;2023-12-20T05:58:36;0.80;99.90
11005;DHT22;5555;59.622;16.556;2023-12-20T06:01:04;0.80;99.90
11005;DHT22;5555;59.622;16.556;2023-12-20T06:03:30;0.80;99.90
11005;DHT22;5555;59.622;16.556;2023-12-20T06:05:56;0.80;99.90
11005;DHT22;5555;59.622;16.556;2023-12-20T06:08:22;0.80;99.90
11005;DHT22;5555;59.622;16.556;2023-12-20T06:10:48;0.80;99.90
11005;DHT22;5555;59.622;16.556;2023-12-20T06:13:14;0.80;99.90
11005;DHT22;5555;59.622;16.556;2023-12-20T06:15:39;0.70;99.90
11005;DHT22;5555;59.622;16.556;2023-12-20T06:18:06;0.60;99.90
11005;DHT22;5555;59.622;16.556;2023-12-20T06:20:32;0.60;99.90
11005;DHT22;5555;59.622;16.556;2023-12-20T06:22:58;0.60;99.90
11005;DHT22;5555;59.622;16.556;2023-12-20T06:25:24;0.60;99.90
11005;DHT22;5555;59.622;16.556;2023-12-20T06:27:49;0.60;99.90
11005;DHT22;5555;59.622;16.556;2023-12-20T06:30:16;0.60;99.90
11005;DHT22;5555;59.622;16.556;2023-12-20T06:32:42;0.60;99.90
11005;DHT22;5555;59.622;16.556;2023-12-20T06:35:08;0.60;99.90
11005;DHT22;5555;59.622;16.556;2023-12-20T06:37:34;0.60;99.90
11005;DHT22;5555;59.622;16.556;2023-12-20T06:40:01;0.60;99.90
11005;DHT22;5555;59.622;16.556;2023-12-20T06:42:27;0.60;99.90
11005;DHT22;5555;59.622;16.556;2023-12-20T06:44:53;0.60;99.90
11005;DHT22;5555;59.622;16.556;2023-12-20T06:47:18;0.60;99.90
11005;DHT22;5555;59.622;16.556;2023-12-20T06:49:44;0.60;99.90
11005;DHT22;5555;59.622;16.556;2023-12-20T06:52:09;0.70;99.90
11005;DHT22;5555;59.622;16.556;2023-12-20T06:54:35;0.70;99.90
11005;DHT22;5555;59.622;16.556;2023-12-20T06:57:01;0.70;99.90
11005;DHT22;5555;59.622;16.556;2023-12-20T06:59:29;0.70;99.90
11005;DHT22;5555;59.622;16.556;2023-12-20T07:01:54;0.80;99.90
11005;DHT22;5555;59.622;16.556;2023-12-20T07:04:20;0.80;99.90
11005;DHT22;5555;59.622;16.556;2023-12-20T07:06:47;0.80;99.90
11005;DHT22;5555;59.622;16.556;2023-12-20T07:09:14;0.80;99.90
11005;DHT22;5555;59.622;16.556;2023-12-20T07:11:39;0.80;99.90
11005;DHT22;5555;59.622;16.556;2023-12-20T07:14:05;0.80;99.90
11005;DHT22;5555;59.622;16.556;2023-12-20T07:16:31;0.90;99.90
11005;DHT22;5555;59.622;16.556;2023-12-20T07:18:57;0.90;99.90
11005;DHT22;5555;59.622;16.556;2023-12-20T07:21:23;0.90;99.90
11005;DHT22;5555;59.622;16.556;2023-12-20T07:23:48;0.90;99.90
11005;DHT22;5555;59.622;16.556;2023-12-20T07:26:14;0.90;99.90
11005;DHT22;5555;59.622;16.556;2023-12-20T07:28:40;0.80;99.90
11005;DHT22;5555;59.622;16.556;2023-12-20T07:31:06;0.80;99.90
11005;DHT22;5555;59.622;16.556;2023-12-20T07:33:31;0.80;99.90
11005;DHT22;5555;59.622;16.556;2023-12-20T07:35:58;0.80;99.90
11005;DHT22;5555;59.622;16.556;2023-12-20T07:38:24;0.90;99.90
11005;DHT22;5555;59.622;16.556;2023-12-20T07:40:50;0.80;99.90
11005;DHT22;5555;59.622;16.556;2023-12-20T07:43:15;0.80;99.90
11005;DHT22;5555;59.622;16.556;2023-12-20T07:45:41;0.80;99.90
11005;DHT22;5555;59.622;16.556;2023-12-20T07:48:07;0.80;99.90
11005;DHT22;5555;59.622;16.556;2023-12-20T07:50:33;0.80;99.90
11005;DHT22;5555;59.622;16.556;2023-12-20T07:52:58;0.90;99.90
11005;DHT22;5555;59.622;16.556;2023-12-20T07:55:26;0.90;99.90
11005;DHT22;5555;59.622;16.556;2023-12-20T07:57:52;0.90;99.90
11005;DHT22;5555;59.622;16.556;2023-12-20T08:00:18;0.90;99.90
11005;DHT22;5555;59.622;16.556;2023-12-20T08:02:44;0.90;99.90
11005;DHT22;5555;59.622;16.556;2023-12-20T08:05:10;0.90;99.90
11005;DHT22;5555;59.622;16.556;2023-12-20T08:07:36;0.90;99.90
11005;DHT22;5555;59.622;16.556;2023-12-20T08:10:01;0.90;99.90
11005;DHT22;5555;59.622;16.556;2023-12-20T08:12:27;0.90;99.90
11005;DHT22;5555;59.622;16.556;2023-12-20T08:14:53;0.90;99.90
11005;DHT22;5555;59.622;16.556;2023-12-20T08:17:19;0.90;99.90
11005;DHT22;5555;59.622;16.556;2023-12-20T08:19:45;0.90;99.90
11005;DHT22;5555;59.622;16.556;2023-12-20T08:22:11;0.90;99.90
11005;DHT22;5555;59.622;16.556;2023-12-20T08:24:37;0.90;99.90
11005;DHT22;5555;59.622;16.556;2023-12-20T08:27:04;0.90;99.90
11005;DHT22;5555;59.622;16.556;2023-12-20T08:29:29;1.00;99.90
11005;DHT22;5555;59.622;16.556;2023-12-20T08:31:55;1.00;99.90
11005;DHT22;5555;59.622;16.556;2023-12-20T08:34:21;1.00;99.90
11005;DHT22;5555;59.622;16.556;2023-12-20T08:36:47;1.00;99.90
11005;DHT22;5555;59.622;16.556;2023-12-20T08:39:12;1.00;99.90
11005;DHT22;5555;59.622;16.556;2023-12-20T08:41:38;1.00;99.90
11005;DHT22;5555;59.622;16.556;2023-12-20T08:44:04;1.00;99.90
11005;DHT22;5555;59.622;16.556;2023-12-20T08:46:29;1.00;99.90
11005;DHT22;5555;59.622;16.556;2023-12-20T08:48:55;1.00;99.90
11005;DHT22;5555;59.622;16.556;2023-12-20T08:51:21;1.00;99.90
11005;DHT22;5555;59.622;16.556;2023-12-20T08:53:49;0.90;99.90
11005;DHT22;5555;59.622;16.556;2023-12-20T08:56:15;0.90;99.90
11005;DHT22;5555;59.622;16.556;2023-12-20T08:58:42;0.90;99.90
11005;DHT22;5555;59.622;16.556;2023-12-20T09:01:07;0.90;99.90
11005;DHT22;5555;59.622;16.556;2023-12-20T09:03:33;0.90;99.90
11005;DHT22;5555;59.622;16.556;2023-12-20T09:05:58;0.90;99.90
11005;DHT22;5555;59.622;16.556;2023-12-20T09:08:24;0.90;99.90
11005;DHT22;5555;59.622;16.556;2023-12-20T09:10:50;0.90;99.90
11005;DHT22;5555;59.622;16.556;2023-12-20T09:13:15;0.90;99.90
11005;DHT22;5555;59.622;16.556;2023-12-20T09:15:41;0.90;99.90
11005;DHT22;5555;59.622;16.556;2023-12-20T09:18:07;0.90;99.90
11005;DHT22;5555;59.622;16.556;2023-12-20T09:20:33;0.90;99.90
11005;DHT22;5555;59.622;16.556;2023-12-20T09:22:59;0.90;99.90
11005;DHT22;5555;59.622;16.556;2023-12-20T09:25:25;1.00;99.90
11005;DHT22;5555;59.622;16.556;2023-12-20T09:27:52;1.00;99.90
11005;DHT22;5555;59.622;16.556;2023-12-20T09:30:18;1.00;99.90
11005;DHT22;5555;59.622;16.556;2023-12-20T09:32:44;1.10;99.90
11005;DHT22;5555;59.622;16.556;2023-12-20T09:35:10;1.10;99.90
11005;DHT22;5555;59.622;16.556;2023-12-20T09:37:36;1.10;99.90
11005;DHT22;5555;59.622;16.556;2023-12-20T09:40:02;1.10;99.90
11005;DHT22;5555;59.622;16.556;2023-12-20T09:42:44;1.20;99.90
11005;DHT22;5555;59.622;16.556;2023-12-20T09:45:14;1.20;99.90
11005;DHT22;5555;59.622;16.556;2023-12-20T09:47:40;1.20;99.90
11005;DHT22;5555;59.622;16.556;2023-12-20T09:50:07;1.20;99.90
11005;DHT22;5555;59.622;16.556;2023-12-20T09:52:34;1.10;99.90
11005;DHT22;5555;59.622;16.556;2023-12-20T09:55:01;1.10;99.90
11005;DHT22;5555;59.622;16.556;2023-12-20T09:57:30;1.10;99.90
11005;DHT22;5555;59.622;16.556;2023-12-20T09:59:55;1.10;99.90
11005;DHT22;5555;59.622;16.556;2023-12-20T10:02:24;1.10;99.90
11005;DHT22;5555;59.622;16.556;2023-12-20T10:04:52;1.10;99.90
11005;DHT22;5555;59.622;16.556;2023-12-20T10:07:18;1.10;99.90
11005;DHT22;5555;59.622;16.556;2023-12-20T10:09:44;1.10;99.90
11005;DHT22;5555;59.622;16.556;2023-12-20T10:12:10;1.10;99.90
11005;DHT22;5555;59.622;16.556;2023-12-20T10:14:35;1.00;99.90
11005;DHT22;5555;59.622;16.556;2023-12-20T10:17:05;1.10;99.90
11005;DHT22;5555;59.622;16.556;2023-12-20T10:19:31;1.10;99.90
11005;DHT22;5555;59.622;16.556;2023-12-20T10:22:00;1.10;99.90
11005;DHT22;5555;59.622;16.556;2023-12-20T10:24:28;1.10;99.90
11005;DHT22;5555;59.622;16.556;2023-12-20T10:27:08;1.00;99.90
11005;DHT22;5555;59.622;16.556;2023-12-20T10:29:37;1.00;99.90
11005;DHT22;5555;59.622;16.556;2023-12-20T10:34:49;1.10;99.90
11005;DHT22;5555;59.622;16.556;2023-12-20T10:37:15;1.10;99.90
11005;DHT22;5555;59.622;16.556;2023-12-20T10:39:42;1.00;99.90
11005;DHT22;5555;59.622;16.556;2023-12-20T10:42:10;1.10;99.90
11005;DHT22;5555;59.622;16.556;2023-12-20T10:44:36;1.00;99.90
11005;DHT22;5555;59.622;16.556;2023-12-20T10:47:03;1.10;99.90
11005;DHT22;5555;59.622;16.556;2023-12-20T10:49:30;1.00;99.90
11005;DHT22;5555;59.622;16.556;2023-12-20T10:51:57;1.00;99.90
11005;DHT22;5555;59.622;16.556;2023-12-20T10:54:25;1.00;99.90
11005;DHT22;5555;59.622;16.556;2023-12-20T10:56:52;1.10;99.90
11005;DHT22;5555;59.622;16.556;2023-12-20T10:59:19;1.10;99.90
11005;DHT22;5555;59.622;16.556;2023-12-20T11:01:47;1.10;99.90
11005;DHT22;5555;59.622;16.556;2023-12-20T11:04:31;1.10;99.90
11005;DHT22;5555;59.622;16.556;2023-12-20T11:07:15;1.10;99.90
11005;DHT22;5555;59.622;16.556;2023-12-20T11:09:47;1.10;99.90
11005;DHT22;5555;59.622;16.556;2023-12-20T11:12:29;1.10;99.90
11005;DHT22;5555;59.622;16.556;2023-12-20T11:14:58;1.10;99.90
11005;DHT22;5555;59.622;16.556;2023-12-20T11:17:28;1.10;99.90
11005;DHT22;5555;59.622;16.556;2023-12-20T11:22:24;1.10;99.90
11005;DHT22;5555;59.622;16.556;2023-12-20T11:24:51;1.10;99.90
11005;DHT22;5555;59.622;16.556;2023-12-20T11:27:18;1.10;99.90
11005;DHT22;5555;59.622;16.556;2023-12-20T11:29:51;1.10;99.90
11005;DHT22;5555;59.622;16.556;2023-12-20T11:34:58;1.10;99.90
11005;DHT22;5555;59.622;16.556;2023-12-20T11:37:31;1.10;99.90
11005;DHT22;5555;59.622;16.556;2023-12-20T11:40:07;1.10;99.90
11005;DHT22;5555;59.622;16.556;2023-12-20T11:42:45;1.10;99.90
11005;DHT22;5555;59.622;16.556;2023-12-20T11:45:18;1.10;99.90
11005;DHT22;5555;59.622;16.556;2023-12-20T11:47:47;1.10;99.90
11005;DHT22;5555;59.622;16.556;2023-12-20T11:50:18;1.10;99.90
11005;DHT22;5555;59.622;16.556;2023-12-20T11:52:44;1.00;99.90
11005;DHT22;5555;59.622;16.556;2023-12-20T11:55:09;1.00;99.90
11005;DHT22;5555;59.622;16.556;2023-12-20T11:57:36;1.00;99.90
11005;DHT22;5555;59.622;16.556;2023-12-20T12:00:03;1.00;99.90
11005;DHT22;5555;59.622;16.556;2023-12-20T12:02:29;1.00;99.90
11005;DHT22;5555;59.622;16.556;2023-12-20T12:04:55;1.00;99.90
11005;DHT22;5555;59.622;16.556;2023-12-20T12:07:22;1.10;99.90
11005;DHT22;5555;59.622;16.556;2023-12-20T12:09:47;1.10;99.90
11005;DHT22;5555;59.622;16.556;2023-12-20T12:12:13;1.10;99.90
11005;DHT22;5555;59.622;16.556;2023-12-20T12:14:39;1.10;99.90
11005;DHT22;5555;59.622;16.556;2023-12-20T12:17:12;1.00;99.90
11005;DHT22;5555;59.622;16.556;2023-12-20T12:19:41;1.10;99.90
11005;DHT22;5555;59.622;16.556;2023-12-20T12:22:12;1.10;99.90
11005;DHT22;5555;59.622;16.556;2023-12-20T12:24:40;1.20;99.90
11005;DHT22;5555;59.622;16.556;2023-12-20T12:27:06;1.30;99.90
11005;DHT22;5555;59.622;16.556;2023-12-20T12:29:33;1.30;99.90
11005;DHT22;5555;59.622;16.556;2023-12-20T12:32:00;1.30;99.90
11005;DHT22;5555;59.622;16.556;2023-12-20T12:34:27;1.40;99.90
11005;DHT22;5555;59.622;16.556;2023-12-20T12:36:53;1.40;99.90
11005;DHT22;5555;59.622;16.556;2023-12-20T12:39:19;1.40;99.90
11005;DHT22;5555;59.622;16.556;2023-12-20T12:41:45;1.40;99.90
11005;DHT22;5555;59.622;16.556;2023-12-20T12:44:11;1.40;99.90
11005;DHT22;5555;59.622;16.556;2023-12-20T12:46:36;1.40;99.90
11005;DHT22;5555;59.622;16.556;2023-12-20T12:49:02;1.40;99.90
11005;DHT22;5555;59.622;16.556;2023-12-20T12:51:27;1.40;99.90
11005;DHT22;5555;59.622;16.556;2023-12-20T12:53:53;1.30;99.90
11005;DHT22;5555;59.622;16.556;2023-12-20T12:56:19;1.40;99.90
11005;DHT22;5555;59.622;16.556;2023-12-20T12:58:44;1.50;99.90
11005;DHT22;5555;59.622;16.556;2023-12-20T13:01:10;1.50;99.90
11005;DHT22;5555;59.622;16.556;2023-12-20T13:03:36;1.50;99.90
11005;DHT22;5555;59.622;16.556;2023-12-20T13:06:02;1.50;99.90
11005;DHT22;5555;59.622;16.556;2023-12-20T13:08:29;1.50;99.90
11005;DHT22;5555;59.622;16.556;2023-12-20T13:10:55;1.50;99.90
11005;DHT22;5555;59.622;16.556;2023-12-20T13:13:22;1.50;99.90
11005;DHT22;5555;59.622;16.556;2023-12-20T13:15:48;1.50;99.90
11005;DHT22;5555;59.622;16.556;2023-12-20T13:18:18;1.60;99.90
11005;DHT22;5555;59.622;16.556;2023-12-20T13:20:44;1.60;99.90
11005;DHT22;5555;59.622;16.556;2023-12-20T13:23:10;1.60;99.90
11005;DHT22;5555;59.622;16.556;2023-12-20T13:25:35;1.50;99.90
11005;DHT22;5555;59.622;16.556;2023-12-20T13:28:01;1.50;99.90
11005;DHT22;5555;59.622;16.556;2023-12-20T13:30:28;1.50;99.90
11005;DHT22;5555;59.622;16.556;2023-12-20T13:32:53;1.50;99.90
11005;DHT22;5555;59.622;16.556;2023-12-20T13:35:19;1.40;99.90
11005;DHT22;5555;59.622;16.556;2023-12-20T13:37:46;1.40;99.90
11005;DHT22;5555;59.622;16.556;2023-12-20T13:40:11;1.40;99.90
11005;DHT22;5555;59.622;16.556;2023-12-20T13:42:41;1.30;99.90
11005;DHT22;5555;59.622;16.556;2023-12-20T13:45:07;1.30;99.90
11005;DHT22;5555;59.622;16.556;2023-12-20T13:47:33;1.20;99.90
11005;DHT22;5555;59.622;16.556;2023-12-20T13:49:58;1.20;99.90
11005;DHT22;5555;59.622;16.556;2023-12-20T13:52:24;1.20;99.90
11005;DHT22;5555;59.622;16.556;2023-12-20T13:54:50;1.20;99.90
11005;DHT22;5555;59.622;16.556;2023-12-20T13:57:15;1.10;99.90
11005;DHT22;5555;59.622;16.556;2023-12-20T13:59:41;1.10;99.90
11005;DHT22;5555;59.622;16.556;2023-12-20T14:02:06;1.10;99.90
11005;DHT22;5555;59.622;16.556;2023-12-20T14:04:32;1.10;99.90
11005;DHT22;5555;59.622;16.556;2023-12-20T14:06:58;1.10;99.90
11005;DHT22;5555;59.622;16.556;2023-12-20T14:09:24;1.20;99.90
11005;DHT22;5555;59.622;16.556;2023-12-20T14:11:49;1.20;99.90
11005;DHT22;5555;59.622;16.556;2023-12-20T14:14:15;1.10;99.90
11005;DHT22;5555;59.622;16.556;2023-12-20T14:16:41;1.10;99.90
11005;DHT22;5555;59.622;16.556;2023-12-20T14:19:09;1.10;99.90
11005;DHT22;5555;59.622;16.556;2023-12-20T14:21:35;1.20;99.90
11005;DHT22;5555;59.622;16.556;2023-12-20T14:24:00;1.10;99.90
11005;DHT22;5555;59.622;16.556;2023-12-20T14:26:26;1.20;99.90
11005;DHT22;5555;59.622;16.556;2023-12-20T14:28:53;1.20;99.90
11005;DHT22;5555;59.622;16.556;2023-12-20T14:31:19;1.10;99.90
11005;DHT22;5555;59.622;16.556;2023-12-20T14:33:44;1.10;99.90
11005;DHT22;5555;59.622;16.556;2023-12-20T14:36:11;1.10;99.90
11005;DHT22;5555;59.622;16.556;2023-12-20T14:38:37;1.10;99.90
11005;DHT22;5555;59.622;16.556;2023-12-20T14:41:03;1.10;99.90
11005;DHT22;5555;59.622;16.556;2023-12-20T14:43:31;1.10;99.90
11005;DHT22;5555;59.622;16.556;2023-12-20T14:45:56;1.10;99.90
11005;DHT22;5555;59.622;16.556;2023-12-20T14:48:22;1.10;99.90
11005;DHT22;5555;59.622;16.556;2023-12-20T14:50:48;1.10;99.90
11005;DHT22;5555;59.622;16.556;2023-12-20T14:53:14;1.10;99.90
11005;DHT22;5555;59.622;16.556;2023-12-20T14:55:42;1.10;99.90
11005;DHT22;5555;59.622;16.556;2023-12-20T14:58:08;1.10;99.90
11005;DHT22;5555;59.622;16.556;2023-12-20T15:00:33;1.10;99.90
11005;DHT22;5555;59.622;16.556;2023-12-20T15:02:59;1.10;99.90
11005;DHT22;5555;59.622;16.556;2023-12-20T15:05:25;1.10;99.90
11005;DHT22;5555;59.622;16.556;2023-12-20T15:07:51;1.10;99.90
11005;DHT22;5555;59.622;16.556;2023-12-20T15:10:18;1.10;99.90
11005;DHT22;5555;59.622;16.556;2023-12-20T15:12:43;1.10;99.90
11005;DHT22;5555;59.622;16.556;2023-12-20T15:15:10;1.10;99.90
11005;DHT22;5555;59.622;16.556;2023-12-20T15:17:36;1.10;99.90
11005;DHT22;5555;59.622;16.556;2023-12-20T15:20:03;1.00;99.90
11005;DHT22;5555;59.622;16.556;2023-12-20T15:22:30;1.00;99.90
11005;DHT22;5555;59.622;16.556;2023-12-20T15:24:55;1.00;99.90
11005;DHT22;5555;59.622;16.556;2023-12-20T15:27:21;1.10;99.90
11005;DHT22;5555;59.622;16.556;2023-12-20T15:29:47;1.00;99.90
11005;DHT22;5555;59.622;16.556;2023-12-20T15:32:15;1.00;99.90
11005;DHT22;5555;59.622;16.556;2023-12-20T15:34:40;1.00;99.90
11005;DHT22;5555;59.622;16.556;2023-12-20T15:37:06;1.00;99.90
11005;DHT22;5555;59.622;16.556;2023-12-20T15:39:31;1.00;99.90
11005;DHT22;5555;59.622;16.556;2023-12-20T15:41:57;1.00;99.90
11005;DHT22;5555;59.622;16.556;2023-12-20T15:44:23;1.00;99.90